sensor_id;sensor_type;location;lat;lon;timestamp;pressure;altitude;pressure_sealevel;temperature;humidity
65173;BME280;51758;52.218;5.172;2022-09-09T00:00:28;100615.16;;;15.50;100.00
65173;BME280;51758;52.218;5.172;2022-09-09T00:03:02;100606.16;;;15.39;100.00
65173;BME280;51758;52.218;5.172;2022-09-09T00:05:31;100611.72;;;15.56;100.00
65173;BME280;51758;52.218;5.172;2022-09-09T00:08:03;100599.72;;;15.60;100.00
65173;BME280;51758;52.218;5.172;2022-09-09T00:10:32;100605.75;;;15.67;100.00
65173;BME280;51758;52.218;5.172;2022-09-09T00:13:01;100596.16;;;15.48;100.00
65173;BME280;51758;52.218;5.172;2022-09-09T00:15:32;100598.75;;;15.54;100.00
65173;BME280;51758;52.218;5.172;2022-09-09T00:18:07;100594.19;;;15.43;100.00
65173;BME280;51758;52.218;5.172;2022-09-09T00:20:38;100597.91;;;15.60;100.00
65173;BME280;51758;52.218;5.172;2022-09-09T00:23:12;100597.03;;;15.41;100.00
65173;BME280;51758;52.218;5.172;2022-09-09T00:25:42;100601.63;;;15.46;100.00
65173;BME280;51758;52.218;5.172;2022-09-09T00:28:18;100594.50;;;15.28;100.00
65173;BME280;51758;52.218;5.172;2022-09-09T00:30:46;100592.03;;;15.33;100.00
65173;BME280;51758;52.218;5.172;2022-09-09T00:33:16;100594.88;;;15.32;100.00
65173;BME280;51758;52.218;5.172;2022-09-09T00:35:45;100595.69;;;15.32;100.00
65173;BME280;51758;52.218;5.172;2022-09-09T00:38:14;100598.47;;;15.37;100.00
65173;BME280;51758;52.218;5.172;2022-09-09T00:40:45;100587.22;;;15.30;100.00
65173;BME280;51758;52.218;5.172;2022-09-09T00:43:21;100601.06;;;15.19;100.00
65173;BME280;51758;52.218;5.172;2022-09-09T00:46:05;100594.75;;;15.20;100.00
65173;BME280;51758;52.218;5.172;2022-09-09T00:48:39;100592.25;;;15.07;100.00
65173;BME280;51758;52.218;5.172;2022-09-09T00:51:12;100594.31;;;14.98;100.00
65173;BME280;51758;52.218;5.172;2022-09-09T00:53:51;100602.41;;;14.97;100.00
65173;BME280;51758;52.218;5.172;2022-09-09T00:56:24;100599.19;;;14.95;100.00
65173;BME280;51758;52.218;5.172;2022-09-09T00:58:56;100598.06;;;15.09;100.00
65173;BME280;51758;52.218;5.172;2022-09-09T01:01:26;100597.63;;;14.87;100.00
65173;BME280;51758;52.218;5.172;2022-09-09T01:03:56;100599.63;;;14.92;100.00
65173;BME280;51758;52.218;5.172;2022-09-09T01:06:27;100590.50;;;14.94;100.00
65173;BME280;51758;52.218;5.172;2022-09-09T01:09:00;100595.53;;;14.96;100.00
65173;BME280;51758;52.218;5.172;2022-09-09T01:11:32;100600.38;;;14.99;100.00
65173;BME280;51758;52.218;5.172;2022-09-09T01:14:01;100598.44;;;14.88;100.00
65173;BME280;51758;52.218;5.172;2022-09-09T01:16:31;100593.97;;;14.88;100.00
65173;BME280;51758;52.218;5.172;2022-09-09T01:18:59;100595.63;;;14.83;100.00
65173;BME280;51758;52.218;5.172;2022-09-09T01:21:30;100596.41;;;14.83;100.00
65173;BME280;51758;52.218;5.172;2022-09-09T01:24:06;100576.06;;;14.41;100.00
65173;BME280;51758;52.218;5.172;2022-09-09T01:26:38;100595.34;;;14.59;100.00
65173;BME280;51758;52.218;5.172;2022-09-09T01:29:07;100595.34;;;14.59;100.00
65173;BME280;51758;52.218;5.172;2022-09-09T01:31:36;100592.91;;;14.58;100.00
65173;BME280;51758;52.218;5.172;2022-09-09T01:34:07;100581.84;;;14.56;100.00
65173;BME280;51758;52.218;5.172;2022-09-09T01:36:37;100579.41;;;14.54;100.00
65173;BME280;51758;52.218;5.172;2022-09-09T01:39:06;100579.66;;;14.46;100.00
65173;BME280;51758;52.218;5.172;2022-09-09T01:41:33;100578.47;;;14.42;100.00
65173;BME280;51758;52.218;5.172;2022-09-09T01:44:02;100579.69;;;14.40;100.00
65173;BME280;51758;52.218;5.172;2022-09-09T01:46:30;100574.59;;;14.45;100.00
65173;BME280;51758;52.218;5.172;2022-09-09T01:48:57;100580.03;;;14.50;100.00
65173;BME280;51758;52.218;5.172;2022-09-09T01:51:26;100580.03;;;14.56;100.00
65173;BME280;51758;52.218;5.172;2022-09-09T01:53:53;100564.00;;;14.64;100.00
65173;BME280;51758;52.218;5.172;2022-09-09T01:56:24;100558.34;;;14.67;100.00
65173;BME280;51758;52.218;5.172;2022-09-09T01:58:57;100565.50;;;14.47;100.00
65173;BME280;51758;52.218;5.172;2022-09-09T02:01:33;100577.22;;;14.51;100.00
65173;BME280;51758;52.218;5.172;2022-09-09T02:04:03;100565.34;;;14.42;100.00
65173;BME280;51758;52.218;5.172;2022-09-09T02:06:36;100574.44;;;14.40;100.00
65173;BME280;51758;52.218;5.172;2022-09-09T02:09:05;100572.22;;;14.30;100.00
65173;BME280;51758;52.218;5.172;2022-09-09T02:11:33;100568.34;;;14.39;100.00
65173;BME280;51758;52.218;5.172;2022-09-09T02:14:02;100565.16;;;14.30;100.00
65173;BME280;51758;52.218;5.172;2022-09-09T02:16:34;100565.16;;;14.24;100.00
65173;BME280;51758;52.218;5.172;2022-09-09T02:19:06;100563.91;;;14.33;100.00
65173;BME280;51758;52.218;5.172;2022-09-09T02:21:39;100561.72;;;14.30;100.00
65173;BME280;51758;52.218;5.172;2022-09-09T02:24:07;100563.75;;;14.28;100.00
65173;BME280;51758;52.218;5.172;2022-09-09T02:26:37;100558.31;;;14.23;100.00
65173;BME280;51758;52.218;5.172;2022-09-09T02:29:07;100561.13;;;14.21;100.00
65173;BME280;51758;52.218;5.172;2022-09-09T02:31:38;100555.88;;;14.21;100.00
65173;BME280;51758;52.218;5.172;2022-09-09T02:34:06;100559.16;;;14.17;100.00
65173;BME280;51758;52.218;5.172;2022-09-09T02:36:36;100553.47;;;14.20;100.00
65173;BME280;51758;52.218;5.172;2022-09-09T02:39:05;100561.78;;;14.17;100.00
65173;BME280;51758;52.218;5.172;2022-09-09T02:41:35;100559.53;;;14.20;100.00
65173;BME280;51758;52.218;5.172;2022-09-09T02:44:05;100560.38;;;14.08;100.00
65173;BME280;51758;52.218;5.172;2022-09-09T02:46:39;100554.38;;;13.94;100.00
65173;BME280;51758;52.218;5.172;2022-09-09T02:49:13;100553.16;;;14.03;100.00
65173;BME280;51758;52.218;5.172;2022-09-09T02:51:45;100553.31;;;14.15;100.00
65173;BME280;51758;52.218;5.172;2022-09-09T02:54:19;100555.47;;;14.24;100.00
65173;BME280;51758;52.218;5.172;2022-09-09T02:56:51;100556.13;;;14.07;100.00
65173;BME280;51758;52.218;5.172;2022-09-09T02:59:20;100550.06;;;14.13;100.00
65173;BME280;51758;52.218;5.172;2022-09-09T03:01:49;100556.09;;;14.20;100.00
65173;BME280;51758;52.218;5.172;2022-09-09T03:04:17;100551.38;;;13.90;100.00
65173;BME280;51758;52.218;5.172;2022-09-09T03:06:44;100548.91;;;13.95;100.00
65173;BME280;51758;52.218;5.172;2022-09-09T03:09:11;100551.72;;;14.01;100.00
65173;BME280;51758;52.218;5.172;2022-09-09T03:11:39;100544.88;;;13.99;100.00
65173;BME280;51758;52.218;5.172;2022-09-09T03:14:06;100546.50;;;13.94;100.00
65173;BME280;51758;52.218;5.172;2022-09-09T03:16:34;100541.88;;;13.89;100.00
65173;BME280;51758;52.218;5.172;2022-09-09T03:19:03;100537.03;;;13.93;100.00
65173;BME280;51758;52.218;5.172;2022-09-09T03:21:30;100540.63;;;13.98;100.00
65173;BME280;51758;52.218;5.172;2022-09-09T03:23:58;100517.66;;;13.81;100.00
65173;BME280;51758;52.218;5.172;2022-09-09T03:26:25;100540.28;;;13.82;100.00
65173;BME280;51758;52.218;5.172;2022-09-09T03:28:53;100528.97;;;13.88;100.00
65173;BME280;51758;52.218;5.172;2022-09-09T03:31:20;100539.44;;;13.94;100.00
65173;BME280;51758;52.218;5.172;2022-09-09T03:33:47;100548.09;;;13.95;100.00
65173;BME280;51758;52.218;5.172;2022-09-09T03:36:16;100551.97;;;13.92;100.00
65173;BME280;51758;52.218;5.172;2022-09-09T03:38:43;100549.56;;;13.91;100.00
65173;BME280;51758;52.218;5.172;2022-09-09T03:41:11;100548.97;;;13.76;100.00
65173;BME280;51758;52.218;5.172;2022-09-09T03:43:38;100546.53;;;13.87;100.00
65173;BME280;51758;52.218;5.172;2022-09-09T03:46:06;100536.63;;;13.83;100.00
65173;BME280;51758;52.218;5.172;2022-09-09T03:48:33;100543.13;;;13.80;100.00
65173;BME280;51758;52.218;5.172;2022-09-09T03:51:01;100539.47;;;13.88;100.00
65173;BME280;51758;52.218;5.172;2022-09-09T03:53:30;100541.31;;;13.74;100.00
65173;BME280;51758;52.218;5.172;2022-09-09T03:55:58;100535.25;;;13.74;100.00
65173;BME280;51758;52.218;5.172;2022-09-09T03:58:27;100530.59;;;13.82;100.00
65173;BME280;51758;52.218;5.172;2022-09-09T04:00:55;100538.69;;;13.74;100.00
65173;BME280;51758;52.218;5.172;2022-09-09T04:03:23;100537.47;;;13.70;100.00
65173;BME280;51758;52.218;5.172;2022-09-09T04:05:53;100542.78;;;13.50;100.00
65173;BME280;51758;52.218;5.172;2022-09-09T04:08:21;100542.75;;;13.63;100.00
65173;BME280;51758;52.218;5.172;2022-09-09T04:10:53;100541.94;;;13.63;100.00
65173;BME280;51758;52.218;5.172;2022-09-09T04:13:24;100536.28;;;13.59;100.00
65173;BME280;51758;52.218;5.172;2022-09-09T04:15:53;100536.28;;;13.59;100.00
65173;BME280;51758;52.218;5.172;2022-09-09T04:18:21;100530.25;;;13.52;100.00
65173;BME280;51758;52.218;5.172;2022-09-09T04:20:49;100530.66;;;13.62;100.00
65173;BME280;51758;52.218;5.172;2022-09-09T04:23:16;100526.63;;;13.53;100.00
65173;BME280;51758;52.218;5.172;2022-09-09T04:25:44;100527.25;;;13.49;100.00
65173;BME280;51758;52.218;5.172;2022-09-09T04:28:14;100523.19;;;13.59;100.00
65173;BME280;51758;52.218;5.172;2022-09-09T04:30:42;100519.78;;;13.52;100.00
65173;BME280;51758;52.218;5.172;2022-09-09T04:33:09;100514.94;;;13.49;100.00
65173;BME280;51758;52.218;5.172;2022-09-09T04:35:37;100518.56;;;13.55;100.00
65173;BME280;51758;52.218;5.172;2022-09-09T04:38:05;100515.13;;;13.48;100.00
65173;BME280;51758;52.218;5.172;2022-09-09T04:40:33;100515.34;;;13.46;100.00
65173;BME280;51758;52.218;5.172;2022-09-09T04:43:00;100511.09;;;13.52;100.00
65173;BME280;51758;52.218;5.172;2022-09-09T04:45:30;100508.03;;;13.61;100.00
65173;BME280;51758;52.218;5.172;2022-09-09T04:47:58;100508.84;;;13.62;100.00
65173;BME280;51758;52.218;5.172;2022-09-09T04:50:25;100509.09;;;13.54;100.00
65173;BME280;51758;52.218;5.172;2022-09-09T04:52:54;100499.78;;;13.58;100.00
65173;BME280;51758;52.218;5.172;2022-09-09T04:55:21;100500.38;;;13.67;100.00
65173;BME280;51758;52.218;5.172;2022-09-09T04:57:49;100503.63;;;13.49;100.00
65173;BME280;51758;52.218;5.172;2022-09-09T05:00:16;100502.44;;;13.51;100.00
65173;BME280;51758;52.218;5.172;2022-09-09T05:02:46;100503.44;;;13.50;100.00
65173;BME280;51758;52.218;5.172;2022-09-09T05:05:14;100508.69;;;13.44;100.00
65173;BME280;51758;52.218;5.172;2022-09-09T05:07:41;100505.88;;;13.39;100.00
65173;BME280;51758;52.218;5.172;2022-09-09T05:10:09;100507.06;;;13.43;100.00
65173;BME280;51758;52.218;5.172;2022-09-09T05:12:36;100507.66;;;13.45;100.00
65173;BME280;51758;52.218;5.172;2022-09-09T05:15:04;100505.84;;;13.45;100.00
65173;BME280;51758;52.218;5.172;2022-09-09T05:17:32;100501.22;;;13.54;100.00
65173;BME280;51758;52.218;5.172;2022-09-09T05:20:01;100501.41;;;13.46;100.00
65173;BME280;51758;52.218;5.172;2022-09-09T05:22:35;100495.16;;;13.47;100.00
65173;BME280;51758;52.218;5.172;2022-09-09T05:25:03;100499.00;;;13.44;100.00
65173;BME280;51758;52.218;5.172;2022-09-09T05:27:30;100504.47;;;13.36;100.00
65173;BME280;51758;52.218;5.172;2022-09-09T05:29:58;100507.50;;;13.40;100.00
65173;BME280;51758;52.218;5.172;2022-09-09T05:32:25;100507.66;;;13.45;100.00
65173;BME280;51758;52.218;5.172;2022-09-09T05:34:53;100511.91;;;13.52;100.00
65173;BME280;51758;52.218;5.172;2022-09-09T05:37:23;100508.91;;;13.42;100.00
65173;BME280;51758;52.218;5.172;2022-09-09T05:39:50;100498.78;;;13.46;100.00
65173;BME280;51758;52.218;5.172;2022-09-09T05:42:17;100502.03;;;13.48;100.00
65173;BME280;51758;52.218;5.172;2022-09-09T05:44:45;100494.34;;;13.46;100.00
65173;BME280;51758;52.218;5.172;2022-09-09T05:47:12;100493.16;;;13.49;100.00
65173;BME280;51758;52.218;5.172;2022-09-09T05:49:41;100486.22;;;13.74;100.00
65173;BME280;51758;52.218;5.172;2022-09-09T05:52:08;100500.75;;;13.70;100.00
65173;BME280;51758;52.218;5.172;2022-09-09T05:54:37;100495.50;;;13.70;100.00
65173;BME280;51758;52.218;5.172;2022-09-09T05:57:05;100503.97;;;13.72;100.00
65173;BME280;51758;52.218;5.172;2022-09-09T05:59:32;100507.00;;;13.76;100.00
65173;BME280;51758;52.218;5.172;2022-09-09T06:02:00;100509.59;;;13.89;100.00
65173;BME280;51758;52.218;5.172;2022-09-09T06:04:27;100509.59;;;13.82;100.00
65173;BME280;51758;52.218;5.172;2022-09-09T06:06:56;100503.94;;;13.92;100.00
65173;BME280;51758;52.218;5.172;2022-09-09T06:09:23;100504.75;;;13.86;100.00
65173;BME280;51758;52.218;5.172;2022-09-09T06:11:52;100506.13;;;13.95;100.00
65173;BME280;51758;52.218;5.172;2022-09-09T06:14:20;100500.00;;;14.08;100.00
65173;BME280;51758;52.218;5.172;2022-09-09T06:16:47;100505.09;;;14.03;100.00
65173;BME280;51758;52.218;5.172;2022-09-09T06:19:15;100507.47;;;14.11;100.00
65173;BME280;51758;52.218;5.172;2022-09-09T06:21:43;100492.25;;;14.26;100.00
65173;BME280;51758;52.218;5.172;2022-09-09T06:24:10;100498.53;;;14.25;100.00
65173;BME280;51758;52.218;5.172;2022-09-09T06:26:39;100498.66;;;14.43;100.00
65173;BME280;51758;52.218;5.172;2022-09-09T06:29:09;100497.13;;;14.60;100.00
65173;BME280;51758;52.218;5.172;2022-09-09T06:31:36;100499.06;;;14.72;100.00
65173;BME280;51758;52.218;5.172;2022-09-09T06:34:05;100496.66;;;14.95;100.00
65173;BME280;51758;52.218;5.172;2022-09-09T06:36:33;100495.88;;;15.19;100.00
65173;BME280;51758;52.218;5.172;2022-09-09T06:39:01;100495.28;;;15.17;100.00
65173;BME280;51758;52.218;5.172;2022-09-09T06:41:29;100499.72;;;15.17;100.00
65173;BME280;51758;52.218;5.172;2022-09-09T06:43:57;100496.44;;;14.96;100.00
65173;BME280;51758;52.218;5.172;2022-09-09T06:46:26;100496.34;;;14.85;100.00
65173;BME280;51758;52.218;5.172;2022-09-09T06:48:55;100498.63;;;15.24;100.00
65173;BME280;51758;52.218;5.172;2022-09-09T06:51:23;100493.47;;;15.36;100.00
65173;BME280;51758;52.218;5.172;2022-09-09T06:53:52;100440.69;;;14.94;100.00
65173;BME280;51758;52.218;5.172;2022-09-09T06:56:21;100499.13;;;15.15;100.00
65173;BME280;51758;52.218;5.172;2022-09-09T06:58:49;100500.09;;;15.20;100.00
65173;BME280;51758;52.218;5.172;2022-09-09T07:01:18;100505.09;;;15.28;100.00
65173;BME280;51758;52.218;5.172;2022-09-09T07:03:47;100504.50;;;15.26;100.00
65173;BME280;51758;52.218;5.172;2022-09-09T07:06:16;100503.47;;;15.27;100.00
65173;BME280;51758;52.218;5.172;2022-09-09T07:08:48;100510.19;;;15.23;100.00
65173;BME280;51758;52.218;5.172;2022-09-09T07:11:22;100503.88;;;15.49;100.00
65173;BME280;51758;52.218;5.172;2022-09-09T07:13:50;100508.59;;;15.65;100.00
65173;BME280;51758;52.218;5.172;2022-09-09T07:16:17;100509.09;;;15.92;100.00
65173;BME280;51758;52.218;5.172;2022-09-09T07:18:46;100506.97;;;16.01;100.00
65173;BME280;51758;52.218;5.172;2022-09-09T07:21:15;100498.41;;;15.87;100.00
65173;BME280;51758;52.218;5.172;2022-09-09T07:23:42;100501.41;;;15.91;100.00
65173;BME280;51758;52.218;5.172;2022-09-09T07:26:10;100498.34;;;15.94;100.00
65173;BME280;51758;52.218;5.172;2022-09-09T07:28:38;100503.19;;;16.08;100.00
65173;BME280;51758;52.218;5.172;2022-09-09T07:31:05;100500.88;;;16.00;100.00
65173;BME280;51758;52.218;5.172;2022-09-09T07:33:34;100505.66;;;16.22;100.00
65173;BME280;51758;52.218;5.172;2022-09-09T07:36:04;100505.41;;;16.11;100.00
65173;BME280;51758;52.218;5.172;2022-09-09T07:38:37;100504.16;;;16.14;100.00
65173;BME280;51758;52.218;5.172;2022-09-09T07:41:05;100505.91;;;16.20;100.00
65173;BME280;51758;52.218;5.172;2022-09-09T07:43:33;100513.13;;;16.25;100.00
65173;BME280;51758;52.218;5.172;2022-09-09T07:46:01;100500.94;;;16.12;100.00
65173;BME280;51758;52.218;5.172;2022-09-09T07:48:28;100504.97;;;16.15;100.00
65173;BME280;51758;52.218;5.172;2022-09-09T07:51:05;100510.59;;;16.18;100.00
65173;BME280;51758;52.218;5.172;2022-09-09T07:53:33;100491.81;;;16.15;100.00
65173;BME280;51758;52.218;5.172;2022-09-09T07:56:03;100496.66;;;16.29;100.00
65173;BME280;51758;52.218;5.172;2022-09-09T07:58:30;100501.78;;;16.54;100.00
65173;BME280;51758;52.218;5.172;2022-09-09T08:01:07;100507.13;;;16.66;100.00
65173;BME280;51758;52.218;5.172;2022-09-09T08:03:35;100504.16;;;16.44;100.00
65173;BME280;51758;52.218;5.172;2022-09-09T08:06:05;100509.06;;;16.40;100.00
65173;BME280;51758;52.218;5.172;2022-09-09T08:08:33;100502.63;;;16.36;100.00
65173;BME280;51758;52.218;5.172;2022-09-09T08:11:01;100515.09;;;16.29;100.00
65173;BME280;51758;52.218;5.172;2022-09-09T08:13:29;100512.25;;;16.31;100.00
65173;BME280;51758;52.218;5.172;2022-09-09T08:16:03;100511.09;;;16.27;100.00
65173;BME280;51758;52.218;5.172;2022-09-09T08:18:31;100513.41;;;16.35;100.00
65173;BME280;51758;52.218;5.172;2022-09-09T08:21:05;100512.06;;;16.44;100.00
65173;BME280;51758;52.218;5.172;2022-09-09T08:23:34;100514.03;;;16.48;100.00
65173;BME280;51758;52.218;5.172;2022-09-09T08:26:05;100512.41;;;16.47;100.00
65173;BME280;51758;52.218;5.172;2022-09-09T08:28:35;100514.81;;;16.49;100.00
65173;BME280;51758;52.218;5.172;2022-09-09T08:31:06;100508.09;;;16.53;100.00
65173;BME280;51758;52.218;5.172;2022-09-09T08:33:34;100514.06;;;16.60;100.00
65173;BME280;51758;52.218;5.172;2022-09-09T08:36:03;100524.91;;;16.70;100.00
65173;BME280;51758;52.218;5.172;2022-09-09T08:38:32;100518.09;;;16.63;100.00
65173;BME280;51758;52.218;5.172;2022-09-09T08:41:04;100523.56;;;16.61;100.00
65173;BME280;51758;52.218;5.172;2022-09-09T08:43:34;100523.00;;;16.59;100.00
65173;BME280;51758;52.218;5.172;2022-09-09T08:46:03;100533.47;;;16.66;100.00
65173;BME280;51758;52.218;5.172;2022-09-09T08:48:40;100526.56;;;16.95;100.00
65173;BME280;51758;52.218;5.172;2022-09-09T08:51:11;100530.69;;;17.02;100.00
65173;BME280;51758;52.218;5.172;2022-09-09T08:53:41;100531.41;;;17.21;100.00
65173;BME280;51758;52.218;5.172;2022-09-09T08:56:09;100531.47;;;16.91;100.00
65173;BME280;51758;52.218;5.172;2022-09-09T08:58:40;100533.06;;;16.80;100.00
65173;BME280;51758;52.218;5.172;2022-09-09T09:01:17;100538.00;;;16.89;100.00
65173;BME280;51758;52.218;5.172;2022-09-09T09:03:51;100532.69;;;16.77;100.00
65173;BME280;51758;52.218;5.172;2022-09-09T09:06:24;100533.03;;;16.69;100.00
65173;BME280;51758;52.218;5.172;2022-09-09T09:08:58;100533.16;;;16.74;100.00
65173;BME280;51758;52.218;5.172;2022-09-09T09:11:33;100538.41;;;16.74;100.00
65173;BME280;51758;52.218;5.172;2022-09-09T09:14:01;100536.38;;;16.88;100.00
65173;BME280;51758;52.218;5.172;2022-09-09T09:16:31;100538.81;;;16.89;100.00
65173;BME280;51758;52.218;5.172;2022-09-09T09:19:01;100543.38;;;16.82;100.00
65173;BME280;51758;52.218;5.172;2022-09-09T09:21:31;100546.28;;;16.92;100.00
65173;BME280;51758;52.218;5.172;2022-09-09T09:24:03;100540.84;;;16.87;100.00
65173;BME280;51758;52.218;5.172;2022-09-09T09:26:34;100544.28;;;16.76;100.00
65173;BME280;51758;52.218;5.172;2022-09-09T09:29:07;100550.72;;;16.80;100.00
65173;BME280;51758;52.218;5.172;2022-09-09T09:31:37;100544.41;;;16.81;100.00
65173;BME280;51758;52.218;5.172;2022-09-09T09:34:04;100559.22;;;16.82;100.00
65173;BME280;51758;52.218;5.172;2022-09-09T09:36:37;100543.09;;;16.72;100.00
65173;BME280;51758;52.218;5.172;2022-09-09T09:39:07;100543.09;;;16.72;100.00
65173;BME280;51758;52.218;5.172;2022-09-09T09:41:55;100552.44;;;16.56;100.00
65173;BME280;51758;52.218;5.172;2022-09-09T09:44:25;100549.94;;;16.61;100.00
65173;BME280;51758;52.218;5.172;2022-09-09T09:47:04;100547.28;;;16.61;100.00
65173;BME280;51758;52.218;5.172;2022-09-09T09:49:32;100545.13;;;16.58;100.00
65173;BME280;51758;52.218;5.172;2022-09-09T09:52:00;100549.44;;;16.53;100.00
65173;BME280;51758;52.218;5.172;2022-09-09T09:54:29;100557.84;;;16.61;100.00
65173;BME280;51758;52.218;5.172;2022-09-09T09:57:07;100554.59;;;16.59;100.00
65173;BME280;51758;52.218;5.172;2022-09-09T09:59:35;100554.72;;;16.53;100.00
65173;BME280;51758;52.218;5.172;2022-09-09T10:02:17;100544.66;;;16.61;100.00
65173;BME280;51758;52.218;5.172;2022-09-09T10:04:45;100540.00;;;16.63;100.00
65173;BME280;51758;52.218;5.172;2022-09-09T10:07:13;100542.41;;;16.65;100.00
65173;BME280;51758;52.218;5.172;2022-09-09T10:09:44;100541.88;;;16.44;100.00
65173;BME280;51758;52.218;5.172;2022-09-09T10:12:15;100542.78;;;16.50;100.00
65173;BME280;51758;52.218;5.172;2022-09-09T10:14:47;100543.84;;;16.61;100.00
65173;BME280;51758;52.218;5.172;2022-09-09T10:17:18;100543.09;;;16.72;100.00
65173;BME280;51758;52.218;5.172;2022-09-09T10:19:52;100538.97;;;17.06;100.00
65173;BME280;51758;52.218;5.172;2022-09-09T10:22:26;100538.03;;;17.35;100.00
65173;BME280;51758;52.218;5.172;2022-09-09T10:25:01;100547.91;;;17.16;100.00
65173;BME280;51758;52.218;5.172;2022-09-09T10:27:33;100544.47;;;17.04;100.00
65173;BME280;51758;52.218;5.172;2022-09-09T10:30:09;100546.84;;;16.94;100.00
65173;BME280;51758;52.218;5.172;2022-09-09T10:32:45;100551.28;;;16.82;100.00
65173;BME280;51758;52.218;5.172;2022-09-09T10:35:17;100551.63;;;16.86;100.00
65173;BME280;51758;52.218;5.172;2022-09-09T10:37:53;100546.28;;;17.04;100.00
65173;BME280;51758;52.218;5.172;2022-09-09T10:40:32;100546.38;;;16.97;100.00
65173;BME280;51758;52.218;5.172;2022-09-09T10:43:07;100537.72;;;17.20;100.00
65173;BME280;51758;52.218;5.172;2022-09-09T10:45:39;100537.94;;;17.77;100.00
65173;BME280;51758;52.218;5.172;2022-09-09T10:48:12;100536.47;;;17.69;100.00
65173;BME280;51758;52.218;5.172;2022-09-09T10:50:49;100533.22;;;17.79;100.00
65173;BME280;51758;52.218;5.172;2022-09-09T10:53:34;100531.78;;;18.40;100.00
65173;BME280;51758;52.218;5.172;2022-09-09T10:56:04;100533.78;;;18.49;100.00
65173;BME280;51758;52.218;5.172;2022-09-09T10:58:35;100477.13;;;18.00;100.00
65173;BME280;51758;52.218;5.172;2022-09-09T11:01:07;100529.28;;;18.33;100.00
65173;BME280;51758;52.218;5.172;2022-09-09T11:03:37;100540.81;;;18.15;100.00
65173;BME280;51758;52.218;5.172;2022-09-09T11:06:06;100535.44;;;17.70;100.00
65173;BME280;51758;52.218;5.172;2022-09-09T11:08:38;100535.50;;;17.87;100.00
65173;BME280;51758;52.218;5.172;2022-09-09T11:11:09;100534.84;;;17.80;100.00
65173;BME280;51758;52.218;5.172;2022-09-09T11:13:39;100484.56;;;17.51;100.00
65173;BME280;51758;52.218;5.172;2022-09-09T11:16:14;100526.34;;;17.66;100.00
65173;BME280;51758;52.218;5.172;2022-09-09T11:18:43;100534.72;;;17.75;100.00
65173;BME280;51758;52.218;5.172;2022-09-09T11:21:15;100530.59;;;17.67;100.00
65173;BME280;51758;52.218;5.172;2022-09-09T11:23:45;100533.34;;;17.49;100.00
65173;BME280;51758;52.218;5.172;2022-09-09T11:26:17;100469.56;;;17.29;100.00
65173;BME280;51758;52.218;5.172;2022-09-09T11:28:51;100526.94;;;17.45;100.00
65173;BME280;51758;52.218;5.172;2022-09-09T11:31:34;100528.84;;;17.49;100.00
65173;BME280;51758;52.218;5.172;2022-09-09T11:34:15;100523.34;;;17.51;100.00
65173;BME280;51758;52.218;5.172;2022-09-09T11:36:51;100524.88;;;17.47;100.00
65173;BME280;51758;52.218;5.172;2022-09-09T11:39:34;100528.53;;;17.69;100.00
65173;BME280;51758;52.218;5.172;2022-09-09T11:42:07;100519.91;;;17.50;100.00
65173;BME280;51758;52.218;5.172;2022-09-09T11:44:35;100521.41;;;17.58;100.00
65173;BME280;51758;52.218;5.172;2022-09-09T11:47:02;100512.78;;;17.63;100.00
65173;BME280;51758;52.218;5.172;2022-09-09T11:49:40;100505.78;;;17.80;100.00
65173;BME280;51758;52.218;5.172;2022-09-09T11:52:11;100510.16;;;17.51;100.00
65173;BME280;51758;52.218;5.172;2022-09-09T11:54:44;100522.22;;;17.35;100.00
65173;BME280;51758;52.218;5.172;2022-09-09T11:57:18;100516.00;;;17.53;100.00
65173;BME280;51758;52.218;5.172;2022-09-09T11:59:50;100518.09;;;17.39;100.00
65173;BME280;51758;52.218;5.172;2022-09-09T12:02:21;100512.94;;;17.09;100.00
65173;BME280;51758;52.218;5.172;2022-09-09T12:04:53;100520.50;;;17.06;100.00
65173;BME280;51758;52.218;5.172;2022-09-09T12:07:24;100514.03;;;16.90;100.00
65173;BME280;51758;52.218;5.172;2022-09-09T12:09:54;100522.97;;;16.77;100.00
65173;BME280;51758;52.218;5.172;2022-09-09T12:12:27;100519.53;;;16.89;100.00
65173;BME280;51758;52.218;5.172;2022-09-09T12:14:55;100522.34;;;17.29;100.00
65173;BME280;51758;52.218;5.172;2022-09-09T12:17:23;100526.13;;;17.44;100.00
65173;BME280;51758;52.218;5.172;2022-09-09T12:19:59;100526.59;;;17.65;100.00
65173;BME280;51758;52.218;5.172;2022-09-09T12:22:31;100523.59;;;17.73;100.00
65173;BME280;51758;52.218;5.172;2022-09-09T12:25:04;100517.47;;;17.61;100.00
65173;BME280;51758;52.218;5.172;2022-09-09T12:27:40;100521.06;;;17.54;100.00
65173;BME280;51758;52.218;5.172;2022-09-09T12:30:12;100523.25;;;17.58;100.00
65173;BME280;51758;52.218;5.172;2022-09-09T12:32:41;100519.53;;;17.94;100.00
65173;BME280;51758;52.218;5.172;2022-09-09T12:35:11;100519.91;;;18.87;100.00
65173;BME280;51758;52.218;5.172;2022-09-09T12:37:39;100511.94;;;18.99;100.00
65173;BME280;51758;52.218;5.172;2022-09-09T12:40:18;100502.94;;;18.83;100.00
65173;BME280;51758;52.218;5.172;2022-09-09T12:42:47;100509.28;;;18.54;100.00
65173;BME280;51758;52.218;5.172;2022-09-09T12:45:15;100516.97;;;18.10;100.00
65173;BME280;51758;52.218;5.172;2022-09-09T12:47:44;100516.75;;;18.00;100.00
65173;BME280;51758;52.218;5.172;2022-09-09T12:50:17;100514.16;;;17.77;100.00
65173;BME280;51758;52.218;5.172;2022-09-09T12:52:46;100516.56;;;17.78;100.00
65173;BME280;51758;52.218;5.172;2022-09-09T12:55:16;100518.06;;;17.63;100.00